Archival Weather

Habib Bourguiba Intl

Habib Bourguiba Intl, Tunisia (DTMB)

Report from: Sunday, October 1, 2023 5:00 AM CET
Current time: Saturday, March 2, 2024 11:48 AM CET

Current weather – Weather history – Daily summaries
Weather forecast

Temperature23.0°C (73.4°F)
Dew point20.0°C (68.0°F)
Winds 6 kts (3.1 m/s, 6.9 mph) Vrb
Winds variableWinds variable from Northwest (310°) to North (10°)
Visibility6.2 mi. (10 km)
Clouds Few clouds 2,600 ft. (792 m)
Altimeter30.18 in.Hg (1022 mB)
Relative humidity83 %
Density altitude953 ft. (290 m)
Flight conditions Visual Meteorological Conditions
Raw dataDTMB 010400Z 35006KT 310V010 9999 FEW026 23/20 Q1022
An error has occurred. This application may no longer respond until reloaded. Reload 🗙